createdAt,value
2019-02-28T00:01:27.803Z,99.90
2019-02-28T00:03:57.940Z,99.90
2019-02-28T00:06:24.818Z,99.90
2019-02-28T00:08:53.651Z,99.90
2019-02-28T00:11:21.683Z,99.90
2019-02-28T00:13:49.241Z,99.90
2019-02-28T00:16:16.833Z,99.90
2019-02-28T00:18:49.504Z,99.90
2019-02-28T00:21:14.223Z,99.90
2019-02-28T00:23:41.755Z,99.90
2019-02-28T00:26:11.654Z,99.90
2019-02-28T00:28:38.555Z,99.90
2019-02-28T00:31:06.103Z,99.90
2019-02-28T00:33:33.601Z,99.90
2019-02-28T00:36:01.091Z,99.90
2019-02-28T00:38:29.662Z,99.90
2019-02-28T00:40:57.846Z,99.90
2019-02-28T00:43:25.809Z,99.90
2019-02-28T00:45:53.402Z,99.90
2019-02-28T00:48:22.381Z,99.90
2019-02-28T00:50:49.884Z,99.90
2019-02-28T00:53:17.331Z,99.90
2019-02-28T00:55:45.949Z,99.90
2019-02-28T00:58:14.222Z,99.90
2019-02-28T01:00:41.784Z,99.90
2019-02-28T01:03:09.252Z,99.90
2019-02-28T01:05:37.273Z,99.90
2019-02-28T01:08:04.828Z,99.90
2019-02-28T01:10:32.275Z,99.90
2019-02-28T01:12:59.811Z,99.90
2019-02-28T01:15:27.296Z,99.90
2019-02-28T01:17:57.224Z,99.90
2019-02-28T01:20:24.099Z,99.90
2019-02-28T01:22:51.594Z,99.90
2019-02-28T01:25:19.159Z,99.90
2019-02-28T01:27:46.685Z,99.90
2019-02-28T01:30:14.272Z,99.90
2019-02-28T01:32:41.773Z,99.90
2019-02-28T01:35:09.600Z,99.90
2019-02-28T01:37:37.118Z,99.90
2019-02-28T01:40:05.280Z,99.90
2019-02-28T01:42:32.879Z,99.90
2019-02-28T01:45:00.414Z,99.90
2019-02-28T01:47:27.900Z,99.90
2019-02-28T01:49:57.776Z,99.90
2019-02-28T01:52:24.703Z,99.90
2019-02-28T01:54:52.216Z,99.90
2019-02-28T01:57:19.718Z,99.90
2019-02-28T01:59:47.265Z,99.90
2019-02-28T02:02:14.753Z,99.90
2019-02-28T02:04:43.174Z,99.90
2019-02-28T02:07:11.752Z,99.90
2019-02-28T02:09:39.241Z,99.90
2019-02-28T02:12:06.696Z,99.90
2019-02-28T02:14:34.216Z,99.90
2019-02-28T02:17:01.962Z,99.90
2019-02-28T02:19:29.539Z,99.90
2019-02-28T02:21:57.035Z,99.90
2019-02-28T02:24:27.885Z,99.90
2019-02-28T02:26:53.881Z,99.90
2019-02-28T02:29:21.386Z,99.90
2019-02-28T02:31:48.949Z,99.90
2019-02-28T02:34:16.486Z,99.90
2019-02-28T02:36:43.945Z,99.90
2019-02-28T02:39:16.390Z,99.90
2019-02-28T02:41:40.751Z,99.90
2019-02-28T02:44:08.873Z,99.90
2019-02-28T02:46:36.368Z,99.90
2019-02-28T02:49:03.896Z,99.90
2019-02-28T02:51:31.611Z,99.90
2019-02-28T02:53:59.087Z,99.90
2019-02-28T02:56:26.562Z,99.90
2019-02-28T02:58:54.066Z,99.90
2019-02-28T03:01:23.103Z,99.90
2019-02-28T03:03:50.846Z,99.90
2019-02-28T03:06:18.370Z,99.90
2019-02-28T03:08:45.873Z,99.90
2019-02-28T03:11:13.389Z,99.90
2019-02-28T03:13:43.565Z,99.90
2019-02-28T03:16:10.137Z,99.90
2019-02-28T03:18:37.609Z,99.90
2019-02-28T03:21:05.074Z,99.90
2019-02-28T03:23:38.193Z,99.90
2019-02-28T03:26:05.562Z,99.90
2019-02-28T03:28:32.038Z,99.90
2019-02-28T03:31:11.790Z,99.90
2019-02-28T03:33:29.773Z,99.90
2019-02-28T03:35:57.289Z,99.90
2019-02-28T03:38:24.744Z,99.90
2019-02-28T03:40:52.215Z,99.90
2019-02-28T03:43:19.684Z,99.90
2019-02-28T03:45:47.162Z,99.90
2019-02-28T03:48:14.614Z,99.90
2019-02-28T03:50:42.087Z,99.90
2019-02-28T03:53:09.571Z,99.90
2019-02-28T03:55:40.868Z,99.90
2019-02-28T03:58:06.334Z,99.90
2019-02-28T04:00:34.203Z,99.90
2019-02-28T04:03:01.993Z,99.90
2019-02-28T04:05:29.541Z,99.90
2019-02-28T04:07:56.994Z,99.90
2019-02-28T04:10:24.511Z,99.90
2019-02-28T04:12:51.959Z,99.90
2019-02-28T04:15:20.717Z,99.90
2019-02-28T04:17:48.202Z,99.90
2019-02-28T04:20:15.702Z,99.90
2019-02-28T04:22:43.152Z,99.90
2019-02-28T04:25:10.819Z,99.90
2019-02-28T04:27:40.217Z,99.90
2019-02-28T04:30:08.435Z,99.90
2019-02-28T04:32:36.201Z,99.90
2019-02-28T04:35:03.762Z,99.90
2019-02-28T04:37:31.208Z,99.90
2019-02-28T04:39:58.708Z,99.90
2019-02-28T04:42:26.164Z,99.90
2019-02-28T04:44:53.854Z,99.90
2019-02-28T04:47:21.323Z,99.90
2019-02-28T04:49:48.773Z,99.90
2019-02-28T04:52:16.293Z,99.90
2019-02-28T04:54:43.742Z,99.90
2019-02-28T04:57:11.197Z,99.90
2019-02-28T04:59:38.715Z,99.90
2019-02-28T05:02:06.177Z,99.90
2019-02-28T05:04:36.151Z,99.90
2019-02-28T05:07:02.903Z,99.90
2019-02-28T05:09:30.422Z,99.90
2019-02-28T05:11:57.899Z,99.90
2019-02-28T05:14:25.370Z,99.90
2019-02-28T05:16:52.914Z,99.90
2019-02-28T05:19:20.396Z,99.90
2019-02-28T05:21:50.607Z,99.90
2019-02-28T05:24:17.171Z,99.90
2019-02-28T05:26:44.656Z,99.90
2019-02-28T05:29:13.049Z,99.90
2019-02-28T05:31:40.755Z,99.90
2019-02-28T05:34:08.263Z,99.90
2019-02-28T05:36:37.929Z,99.90
2019-02-28T05:39:05.584Z,99.90
2019-02-28T05:41:36.230Z,99.90
2019-02-28T05:44:06.231Z,99.90
2019-02-28T05:46:33.060Z,99.90
2019-02-28T05:49:00.584Z,99.90
2019-02-28T05:51:28.047Z,99.90
2019-02-28T05:53:55.536Z,99.90
2019-02-28T05:56:23.010Z,99.90
2019-02-28T05:58:52.518Z,99.90
2019-02-28T06:01:19.823Z,99.90
2019-02-28T06:03:47.332Z,99.90
2019-02-28T06:06:17.210Z,99.90
2019-02-28T06:08:44.100Z,99.90
2019-02-28T06:11:11.602Z,99.90
2019-02-28T06:13:39.138Z,99.90
2019-02-28T06:16:11.294Z,99.90
2019-02-28T06:18:35.917Z,99.90
2019-02-28T06:21:03.453Z,99.90
2019-02-28T06:23:30.937Z,99.90
2019-02-28T06:25:59.342Z,99.90
2019-02-28T06:28:31.031Z,99.90
2019-02-28T06:30:57.141Z,99.90
2019-02-28T06:33:24.616Z,99.90
2019-02-28T06:35:53.703Z,99.90
2019-02-28T06:38:21.393Z,99.90
2019-02-28T06:40:48.902Z,99.90
2019-02-28T06:43:18.717Z,99.90
2019-02-28T06:45:45.652Z,99.90
2019-02-28T06:48:13.175Z,99.90
2019-02-28T06:50:40.647Z,99.90
2019-02-28T06:53:08.119Z,99.90
2019-02-28T06:55:50.714Z,99.90
2019-02-28T06:58:18.234Z,99.90
2019-02-28T07:00:47.341Z,99.90
2019-02-28T07:03:14.978Z,99.90
2019-02-28T07:05:42.458Z,99.90
2019-02-28T07:08:09.931Z,99.90
2019-02-28T07:10:37.451Z,99.90
2019-02-28T07:13:05.630Z,99.90
2019-02-28T07:15:33.173Z,99.90
2019-02-28T07:18:00.792Z,99.90
2019-02-28T07:20:28.278Z,99.90
2019-02-28T07:22:58.175Z,99.90
2019-02-28T07:25:25.649Z,99.90
2019-02-28T07:27:53.158Z,99.90
2019-02-28T07:30:20.640Z,99.90
2019-02-28T07:32:48.218Z,99.90
2019-02-28T07:35:15.672Z,99.90
2019-02-28T07:37:43.119Z,99.90
2019-02-28T07:40:15.530Z,99.90
2019-02-28T07:42:40.453Z,99.90
2019-02-28T07:45:08.823Z,99.90
2019-02-28T07:47:36.306Z,99.90
2019-02-28T07:50:07.570Z,99.90
2019-02-28T07:52:33.917Z,99.90
2019-02-28T07:55:01.381Z,99.90
2019-02-28T07:57:28.870Z,99.90
2019-02-28T07:59:56.370Z,99.90
2019-02-28T08:02:23.845Z,99.90
2019-02-28T08:04:54.496Z,99.90
2019-02-28T08:07:20.633Z,99.90
2019-02-28T08:09:48.127Z,99.90
2019-02-28T08:12:15.603Z,99.90
2019-02-28T08:14:43.608Z,99.90
2019-02-28T08:17:12.383Z,99.90
2019-02-28T08:19:39.923Z,99.90
2019-02-28T08:22:07.398Z,99.90
2019-02-28T08:24:35.900Z,99.90
2019-02-28T08:27:04.120Z,99.90
2019-02-28T08:29:31.591Z,99.00
2019-02-28T08:31:59.536Z,98.40
2019-02-28T08:34:26.989Z,98.30
2019-02-28T08:36:54.454Z,98.50
2019-02-28T08:39:21.945Z,98.60
2019-02-28T08:41:49.677Z,97.50
2019-02-28T08:44:22.804Z,97.40
2019-02-28T08:46:47.331Z,96.60
2019-02-28T08:49:14.856Z,95.40
2019-02-28T08:51:43.260Z,94.30
2019-02-28T08:54:10.736Z,94.30
2019-02-28T08:56:38.200Z,93.60
2019-02-28T08:59:11.735Z,92.30
2019-02-28T09:01:40.130Z,91.70
2019-02-28T09:04:05.689Z,90.50
2019-02-28T09:06:33.348Z,88.80
2019-02-28T09:09:00.866Z,87.10
2019-02-28T09:11:28.328Z,88.30
2019-02-28T09:13:55.852Z,85.40
2019-02-28T09:16:23.669Z,87.40
2019-02-28T09:18:51.200Z,86.60
2019-02-28T09:21:19.113Z,87.70
2019-02-28T09:23:46.690Z,86.80
2019-02-28T09:26:14.179Z,89.20
2019-02-28T09:28:44.367Z,88.20
2019-02-28T09:31:11.039Z,87.90
2019-02-28T09:33:38.628Z,87.90
2019-02-28T09:36:06.129Z,87.00
2019-02-28T09:38:33.621Z,87.30
2019-02-28T09:41:01.399Z,84.30
2019-02-28T09:43:30.607Z,83.50
2019-02-28T09:45:58.089Z,82.00
2019-02-28T09:48:25.696Z,82.40
2019-02-28T09:50:57.751Z,81.80
2019-02-28T09:53:22.646Z,83.30
2019-02-28T09:55:51.241Z,80.70
2019-02-28T09:58:18.741Z,79.20
2019-02-28T10:00:49.293Z,76.00
2019-02-28T10:03:18.555Z,76.50
2019-02-28T10:05:45.732Z,74.50
2019-02-28T10:08:13.276Z,73.20
2019-02-28T10:10:40.848Z,71.30
2019-02-28T10:13:08.389Z,74.30
2019-02-28T10:15:38.748Z,73.80
2019-02-28T10:18:05.334Z,74.50
2019-02-28T10:20:33.272Z,72.30
2019-02-28T10:23:00.867Z,72.30
2019-02-28T10:25:28.385Z,69.80
2019-02-28T10:28:01.155Z,72.40
2019-02-28T10:30:31.619Z,70.60
2019-02-28T10:32:54.842Z,69.90
2019-02-28T10:35:22.674Z,69.10
2019-02-28T10:37:50.241Z,71.90
2019-02-28T10:40:19.738Z,72.30
2019-02-28T10:42:47.304Z,72.40
2019-02-28T10:45:15.073Z,69.90
2019-02-28T10:47:42.694Z,69.60
2019-02-28T10:50:13.065Z,70.00
2019-02-28T10:52:40.559Z,70.40
2019-02-28T10:55:09.278Z,72.00
2019-02-28T10:57:37.280Z,68.20
2019-02-28T11:00:10.274Z,69.10
2019-02-28T11:02:38.081Z,69.00
2019-02-28T11:05:05.715Z,70.30
2019-02-28T11:07:34.239Z,68.80
2019-02-28T11:10:03.247Z,69.70
2019-02-28T11:12:30.703Z,67.30
2019-02-28T11:14:58.242Z,67.10
2019-02-28T11:17:25.890Z,68.80
2019-02-28T11:19:53.377Z,70.00
2019-02-28T11:22:20.872Z,68.00
2019-02-28T11:24:48.845Z,69.10
2019-02-28T11:27:19.711Z,69.70
2019-02-28T11:29:45.630Z,70.10
2019-02-28T11:32:16.217Z,72.90
2019-02-28T11:34:45.826Z,69.40
2019-02-28T11:37:13.150Z,69.00
2019-02-28T11:39:40.715Z,68.40
2019-02-28T11:42:08.179Z,66.60
2019-02-28T11:44:35.771Z,65.70
2019-02-28T11:47:03.391Z,66.40
2019-02-28T11:49:30.913Z,67.80
2019-02-28T11:51:58.447Z,66.10
2019-02-28T11:54:26.061Z,65.50
2019-02-28T11:56:53.585Z,70.60
2019-02-28T11:59:24.092Z,66.30
2019-02-28T12:01:50.423Z,64.30
2019-02-28T12:04:17.917Z,62.20
2019-02-28T12:06:45.725Z,62.90
2019-02-28T12:09:16.121Z,64.30
2019-02-28T12:11:42.640Z,62.30
2019-02-28T12:14:10.377Z,62.20
2019-02-28T12:16:37.927Z,61.40
2019-02-28T12:19:05.478Z,62.70
2019-02-28T12:21:37.627Z,61.00
2019-02-28T12:24:02.327Z,62.90
2019-02-28T12:26:30.059Z,62.70
2019-02-28T12:28:57.627Z,60.80
2019-02-28T12:31:25.098Z,57.30
2019-02-28T12:33:53.373Z,58.60
2019-02-28T12:36:21.962Z,57.20
2019-02-28T12:38:49.505Z,57.00
2019-02-28T12:41:17.041Z,54.60
2019-02-28T12:43:44.518Z,53.70
2019-02-28T12:46:12.003Z,53.30
2019-02-28T12:48:39.598Z,53.90
2019-02-28T12:51:07.062Z,52.50
2019-02-28T12:53:34.618Z,52.50
2019-02-28T12:56:02.113Z,52.60
2019-02-28T12:58:37.195Z,54.40
2019-02-28T13:01:00.008Z,52.30
2019-02-28T13:03:28.290Z,51.30
2019-02-28T13:05:55.801Z,51.60
2019-02-28T13:08:23.284Z,52.00
2019-02-28T13:10:50.764Z,51.50
2019-02-28T13:13:21.757Z,52.90
2019-02-28T13:15:49.246Z,51.20
2019-02-28T13:18:16.867Z,52.00
2019-02-28T13:20:44.850Z,51.70
2019-02-28T13:23:12.328Z,50.90
2019-02-28T13:25:39.862Z,50.80
2019-02-28T13:28:07.488Z,50.50
2019-02-28T13:30:35.084Z,50.90
2019-02-28T13:33:02.629Z,51.20
2019-02-28T13:35:30.107Z,51.10
2019-02-28T13:37:57.630Z,48.60
2019-02-28T13:40:25.264Z,50.30
2019-02-28T13:42:52.746Z,50.10
2019-02-28T13:45:23.271Z,51.10
2019-02-28T13:47:49.635Z,48.80
2019-02-28T13:50:22.104Z,50.10
2019-02-28T13:52:52.285Z,49.40
2019-02-28T13:55:18.906Z,49.10
2019-02-28T13:57:47.469Z,50.10
2019-02-28T14:00:22.980Z,50.60
2019-02-28T14:02:52.624Z,50.40
2019-02-28T14:05:20.231Z,51.50
2019-02-28T14:07:47.753Z,53.00
2019-02-28T14:10:15.923Z,53.60
2019-02-28T14:13:52.945Z,54.70
2019-02-28T14:16:02.150Z,54.00
2019-02-28T14:18:29.634Z,52.80
2019-02-28T14:20:59.430Z,53.40
2019-02-28T14:23:26.505Z,53.50
2019-02-28T14:25:54.046Z,54.90
2019-02-28T14:28:21.550Z,55.20
2019-02-28T14:30:49.123Z,56.30
2019-02-28T14:33:19.360Z,55.80
2019-02-28T14:35:46.133Z,55.00
2019-02-28T14:38:13.680Z,54.20
2019-02-28T14:40:41.176Z,55.20
2019-02-28T14:43:08.679Z,54.80
2019-02-28T14:45:39.169Z,55.20
2019-02-28T14:48:06.439Z,54.80
2019-02-28T14:50:33.910Z,55.20
2019-02-28T14:53:01.457Z,55.50
2019-02-28T14:55:29.238Z,54.40
2019-02-28T14:57:58.241Z,54.90
2019-02-28T15:00:28.575Z,54.50
2019-02-28T15:02:56.262Z,53.50
2019-02-28T15:05:24.190Z,55.90
2019-02-28T15:07:51.674Z,56.30
2019-02-28T15:10:19.212Z,56.70
2019-02-28T15:12:47.056Z,56.10
2019-02-28T15:15:18.093Z,57.50
2019-02-28T15:17:45.320Z,56.40
2019-02-28T15:20:13.574Z,56.80
2019-02-28T15:22:41.267Z,56.50
2019-02-28T15:25:10.139Z,55.60
2019-02-28T15:27:39.013Z,55.50
2019-02-28T15:30:13.299Z,54.90
2019-02-28T15:33:00.232Z,55.30
2019-02-28T15:35:27.885Z,55.60
2019-02-28T15:37:57.111Z,55.70
2019-02-28T15:40:26.757Z,56.20
2019-02-28T15:42:54.300Z,57.40
2019-02-28T15:45:21.807Z,56.20
2019-02-28T15:47:51.129Z,57.90
2019-02-28T15:50:18.724Z,58.30
2019-02-28T15:52:46.307Z,57.10
2019-02-28T15:55:16.261Z,57.20
2019-02-28T15:57:43.771Z,59.00
2019-02-28T16:00:15.269Z,60.20
2019-02-28T16:02:43.106Z,60.60
2019-02-28T16:05:10.682Z,61.60
2019-02-28T16:07:38.210Z,61.30
2019-02-28T16:10:06.994Z,61.60
2019-02-28T16:12:34.629Z,62.30
2019-02-28T16:15:02.167Z,62.20
2019-02-28T16:17:29.710Z,62.10
2019-02-28T16:19:57.208Z,62.90
2019-02-28T16:22:24.699Z,62.70
2019-02-28T16:24:55.238Z,63.10
2019-02-28T16:27:22.717Z,63.70
2019-02-28T16:29:52.312Z,64.50
2019-02-28T16:32:19.687Z,65.60
2019-02-28T16:34:47.183Z,66.40
2019-02-28T16:37:14.650Z,67.80
2019-02-28T16:39:42.163Z,68.70
2019-02-28T16:42:11.561Z,70.20
2019-02-28T16:44:39.180Z,71.00
2019-02-28T16:47:06.692Z,72.80
2019-02-28T16:49:34.180Z,74.50
2019-02-28T16:52:02.594Z,75.70
2019-02-28T16:54:30.990Z,77.50
2019-02-28T16:56:58.554Z,78.50
2019-02-28T16:59:28.409Z,80.00
2019-02-28T17:01:55.804Z,80.80
2019-02-28T17:04:23.373Z,82.60
2019-02-28T17:06:50.894Z,83.70
2019-02-28T17:09:26.586Z,85.00
2019-02-28T17:12:05.104Z,86.00
2019-02-28T17:14:32.622Z,87.30
2019-02-28T17:17:19.970Z,88.60
2019-02-28T17:19:47.469Z,90.10
2019-02-28T17:22:14.937Z,90.70
2019-02-28T17:24:45.728Z,91.40
2019-02-28T17:27:22.584Z,91.90
2019-02-28T17:30:00.191Z,92.50
2019-02-28T17:32:31.000Z,93.00
2019-02-28T17:34:58.992Z,93.30
2019-02-28T17:37:26.801Z,93.60
2019-02-28T17:39:54.418Z,94.10
2019-02-28T17:42:21.983Z,94.20
2019-02-28T17:45:16.475Z,94.50
2019-02-28T17:48:28.148Z,95.00
2019-02-28T17:51:18.386Z,95.00
2019-02-28T17:54:12.902Z,95.20
2019-02-28T17:57:04.872Z,95.40
2019-02-28T17:59:58.342Z,95.80
2019-02-28T18:03:16.452Z,96.20
2019-02-28T18:06:24.860Z,96.70
2019-02-28T18:09:20.989Z,96.90
2019-02-28T18:12:45.696Z,96.30
2019-02-28T18:15:18.177Z,95.70
2019-02-28T18:18:31.934Z,95.70
2019-02-28T18:21:50.430Z,95.70
2019-02-28T18:25:02.882Z,95.60
2019-02-28T18:28:14.114Z,96.10
2019-02-28T18:31:13.242Z,96.50
2019-02-28T18:33:45.021Z,97.00
2019-02-28T18:36:14.722Z,97.30
2019-02-28T18:38:42.261Z,97.50
2019-02-28T18:41:09.995Z,97.80
2019-02-28T18:43:37.509Z,98.20
2019-02-28T18:46:05.729Z,98.30
2019-02-28T18:48:33.264Z,98.50
2019-02-28T18:51:00.785Z,98.50
2019-02-28T18:53:28.328Z,98.70
2019-02-28T18:55:55.838Z,98.90
2019-02-28T18:58:23.321Z,99.10
2019-02-28T19:00:50.981Z,99.20
2019-02-28T19:03:18.506Z,99.30
2019-02-28T19:05:46.011Z,99.50
2019-02-28T19:08:13.642Z,99.60
2019-02-28T19:10:41.125Z,99.80
2019-02-28T19:13:08.592Z,99.90
2019-02-28T19:15:36.101Z,99.90
2019-02-28T19:18:03.589Z,99.90
2019-02-28T19:20:31.138Z,99.90
2019-02-28T19:22:58.671Z,99.90
2019-02-28T19:25:26.197Z,99.90
2019-02-28T19:27:53.740Z,99.90
2019-02-28T19:30:21.247Z,99.90
2019-02-28T19:32:48.754Z,99.90
2019-02-28T19:35:16.274Z,99.90
2019-02-28T19:37:43.823Z,99.90
2019-02-28T19:40:11.332Z,99.90
2019-02-28T19:42:38.846Z,99.90
2019-02-28T19:45:08.822Z,99.90
2019-02-28T19:47:36.314Z,99.90
2019-02-28T19:50:05.003Z,99.90
2019-02-28T19:52:32.727Z,99.90
2019-02-28T19:55:00.378Z,99.90
2019-02-28T19:57:27.853Z,99.90
2019-02-28T19:59:55.403Z,99.90
2019-02-28T20:02:22.889Z,99.90
2019-02-28T20:04:50.432Z,99.90
2019-02-28T20:07:18.019Z,99.90
2019-02-28T20:09:45.529Z,99.90
2019-02-28T20:12:13.028Z,99.90
2019-02-28T20:14:40.536Z,99.90
2019-02-28T20:17:08.041Z,99.90
2019-02-28T20:19:35.589Z,99.90
2019-02-28T20:22:03.284Z,99.90
2019-02-28T20:24:30.776Z,99.90
2019-02-28T20:26:58.296Z,99.90
2019-02-28T20:29:25.777Z,99.90
2019-02-28T20:31:53.381Z,99.70
2019-02-28T20:34:20.931Z,99.70
2019-02-28T20:36:49.319Z,99.40
2019-02-28T20:39:16.908Z,99.20
2019-02-28T20:41:44.459Z,99.30
2019-02-28T20:44:11.994Z,99.30
2019-02-28T20:46:39.500Z,99.60
2019-02-28T20:49:06.969Z,99.60
2019-02-28T20:51:34.680Z,99.90
2019-02-28T20:54:02.147Z,99.90
2019-02-28T20:56:29.621Z,99.90
2019-02-28T20:58:57.115Z,99.90
2019-02-28T21:01:24.612Z,99.90
2019-02-28T21:03:52.197Z,99.90
2019-02-28T21:06:19.693Z,99.90
2019-02-28T21:08:47.191Z,99.90
2019-02-28T21:11:14.696Z,99.90
2019-02-28T21:13:42.182Z,99.90
2019-02-28T21:16:09.668Z,99.90
2019-02-28T21:18:37.144Z,99.90
2019-02-28T21:21:04.653Z,99.90
2019-02-28T21:23:32.176Z,99.90
2019-02-28T21:25:59.662Z,99.90
2019-02-28T21:28:27.173Z,99.90
2019-02-28T21:30:54.667Z,99.90
2019-02-28T21:33:22.218Z,99.90
2019-02-28T21:35:49.798Z,99.90
2019-02-28T21:38:17.414Z,99.90
2019-02-28T21:40:45.082Z,99.90
2019-02-28T21:43:13.002Z,99.90
2019-02-28T21:45:41.481Z,99.90
2019-02-28T21:48:09.017Z,99.90
2019-02-28T21:50:36.532Z,99.90
2019-02-28T21:53:04.088Z,99.90
2019-02-28T21:55:31.785Z,99.90
2019-02-28T21:57:59.301Z,99.90
2019-02-28T22:00:27.113Z,99.90
2019-02-28T22:02:54.644Z,99.90
2019-02-28T22:05:22.206Z,99.90
2019-02-28T22:07:49.725Z,99.90
2019-02-28T22:10:17.357Z,99.90
2019-02-28T22:12:44.880Z,99.90
2019-02-28T22:15:14.081Z,99.90
2019-02-28T22:17:41.616Z,99.90
2019-02-28T22:20:10.685Z,99.90
2019-02-28T22:22:38.317Z,99.90
2019-02-28T22:25:06.147Z,99.90
2019-02-28T22:27:33.657Z,99.90
2019-02-28T22:30:08.135Z,99.90
2019-02-28T22:32:41.976Z,99.90
2019-02-28T22:35:19.315Z,99.90
2019-02-28T22:37:47.029Z,99.90
2019-02-28T22:40:14.504Z,99.90
2019-02-28T22:42:42.013Z,99.90
2019-02-28T22:45:12.839Z,99.90
2019-02-28T22:47:40.357Z,99.90
2019-02-28T22:50:08.088Z,99.90
2019-02-28T22:52:35.611Z,99.90
2019-02-28T22:55:03.536Z,99.90
2019-02-28T22:57:31.088Z,99.90
2019-02-28T22:59:58.573Z,99.90
2019-02-28T23:02:27.980Z,99.90
2019-02-28T23:04:55.458Z,99.90
2019-02-28T23:07:22.931Z,99.90
2019-02-28T23:09:50.445Z,99.90
2019-02-28T23:12:17.912Z,99.90
2019-02-28T23:14:45.429Z,99.90
2019-02-28T23:17:12.905Z,99.90
2019-02-28T23:19:40.430Z,99.90
2019-02-28T23:22:07.988Z,99.90
2019-02-28T23:24:35.493Z,99.90
2019-02-28T23:27:10.068Z,99.90
2019-02-28T23:29:39.045Z,99.90
2019-02-28T23:32:30.446Z,99.90
2019-02-28T23:34:58.041Z,99.90
2019-02-28T23:37:25.603Z,99.90
2019-02-28T23:39:53.086Z,99.90
2019-02-28T23:42:20.594Z,99.90
2019-02-28T23:44:48.134Z,99.90
2019-02-28T23:47:15.683Z,99.90
2019-02-28T23:49:43.172Z,99.90
2019-02-28T23:52:10.756Z,99.90
2019-02-28T23:54:38.269Z,99.90
2019-02-28T23:57:05.747Z,99.90
2019-02-28T23:59:33.285Z,99.90
